Time;durP1;ratioP1;P1;durP2;ratioP2;P2;SDS_P1;SDS_P2;PMS_P1;PMS_P2;Temp;Humidity;BMP_temperature;BMP_pressure;BME280_temperature;BME280_humidity;BME280_pressure;Samples;Min_cycle;Max_cycle;Signal;HPM_P1;HPM_P2
2021/07/21 00:00:37;;;;;;;21.65;13.75;;;;;;;;;;5092469;28;20488;-62
2021/07/21 00:03:03;;;;;;;;;;;;;;;;;;5074976;28;20020;-62
2021/07/21 00:05:29;;;;;;;21.45;11.52;;;;;;;;;;5092099;28;20038;-62
2021/07/21 00:07:55;;;;;;;20.67;10.80;;;;;;;;;;5092251;28;20020;-62
2021/07/21 00:10:23;;;;;;;21.10;11.18;;;;;;;;;;5092373;28;20388;-63
2021/07/21 00:15:37;;;;;;;20.60;12.15;;;;;;;;;;5092542;28;20039;-62
2021/07/21 00:18:25;;;;;;;20.05;11.15;;;;;;;;;;5092181;28;20044;-61
2021/07/21 00:20:51;;;;;;;21.35;13.20;;;;;;;;;;5091784;28;20024;-61
2021/07/21 00:23:17;;;;;;;19.63;10.50;;;;;;;;;;5091959;28;20028;-62
2021/07/21 00:25:43;;;;;;;19.90;10.45;;;;;;;;;;5073713;28;20024;-64
2021/07/21 00:28:09;;;;;;;21.50;10.82;;;;;;;;;;5073281;28;20545;-61
2021/07/21 00:30:35;;;;;;;22.95;11.90;;;;;;;;;;5073211;28;20096;-62
2021/07/21 00:33:01;;;;;;;21.05;10.38;;;;;;;;;;5073200;28;20052;-62
2021/07/21 00:35:27;;;;;;;20.88;11.75;;;;;;;;;;5091409;28;20482;-62
2021/07/21 00:37:53;;;;;;;22.65;12.60;;;;;;;;;;5074008;28;20023;-60
2021/07/21 00:40:19;;;;;;;20.55;11.38;;;;;;;;;;5073712;28;20630;-62
2021/07/21 00:42:45;;;;;;;19.55;10.40;;;;;;;;;;5091904;28;20063;-62
2021/07/21 00:45:12;;;;;;;19.45;10.52;;;;;;;;;;5091366;28;20055;-63
2021/07/21 00:47:38;;;;;;;25.08;11.45;;;;;;;;;;5091925;28;20028;-61
2021/07/21 00:50:05;;;;;;;20.70;10.43;;;;;;;;;;5073531;28;20551;-61
2021/07/21 00:52:33;;;;;;;21.38;10.80;;;;;;;;;;5073755;28;20085;-62
2021/07/21 00:54:59;;;;;;;21.45;10.65;;;;;;;;;;5073392;28;20503;-62
2021/07/21 00:57:25;;;;;;;20.90;11.40;;;;;;;;;;5091717;28;20110;-62
2021/07/21 00:59:51;;;;;;;21.35;11.43;;;;;;;;;;5073671;28;20132;-60
2021/07/21 01:02:17;;;;;;;22.92;11.93;;;;;;;;;;5094174;28;20024;-62
2021/07/21 01:04:44;;;;;;;20.83;12.05;;;;;;;;;;5095339;28;20093;-60
2021/07/21 01:07:10;;;;;;;30.33;12.63;;;;;;;;;;5077066;28;20031;-61
2021/07/21 01:09:37;;;;;;;21.30;11.75;;;;;;;;;;5077496;28;20385;-62
2021/07/21 01:12:17;;;;;;;20.50;11.40;;;;;;;;;;5095063;28;20056;-62
2021/07/21 01:14:49;;;;;;;22.20;12.13;;;;;;;;;;5077343;28;20034;-62
2021/07/21 01:17:17;;;;;;;20.92;10.77;;;;;;;;;;5094971;28;20027;-61
2021/07/21 01:19:46;;;;;;;20.48;11.57;;;;;;;;;;5077195;28;20085;-62
2021/07/21 01:22:20;;;;;;;21.73;11.15;;;;;;;;;;5094891;28;20024;-62
2021/07/21 01:25:01;;;;;;;20.13;10.35;;;;;;;;;;5076495;28;20051;-63
2021/07/21 01:27:27;;;;;;;20.65;9.95;;;;;;;;;;5094658;28;20048;-62
2021/07/21 01:29:56;;;;;;;21.50;9.80;;;;;;;;;;5094852;28;20024;-62
2021/07/21 01:32:24;;;;;;;20.23;10.30;;;;;;;;;;5094954;28;20387;-62
2021/07/21 01:34:52;;;;;;;22.15;11.35;;;;;;;;;;5094804;28;20019;-62
2021/07/21 01:37:19;;;;;;;22.63;11.27;;;;;;;;;;5094578;28;20032;-61
2021/07/21 01:39:47;;;;;;;21.23;11.38;;;;;;;;;;5076783;28;20042;-60
2021/07/21 01:42:15;;;;;;;20.63;11.47;;;;;;;;;;5094463;28;20025;-62
2021/07/21 01:44:43;;;;;;;21.30;11.57;;;;;;;;;;5075882;28;20266;-61
2021/07/21 01:47:09;;;;;;;20.45;11.38;;;;;;;;;;5094400;28;20495;-62
2021/07/21 01:49:38;;;;;;;23.85;13.05;;;;;;;;;;5076890;28;20032;-61
2021/07/21 01:52:05;;;;;;;22.02;11.38;;;;;;;;;;5094209;28;20073;-62
2021/07/21 01:54:32;;;;;;;22.27;12.13;;;;;;;;;;5094409;28;20077;-61
2021/07/21 01:56:59;;;;;;;21.30;12.45;;;;;;;;;;5075977;28;20115;-60
2021/07/21 01:59:25;;;;;;;20.35;10.90;;;;;;;;;;5094471;28;20138;-60
2021/07/21 02:01:52;;;;;;;23.52;13.27;;;;;;;;;;5094200;28;20028;-61
2021/07/21 02:04:19;;;;;;;20.73;11.05;;;;;;;;;;5094318;28;20426;-63
2021/07/21 02:06:45;;;;;;;23.65;13.07;;;;;;;;;;5094027;28;20035;-62
2021/07/21 02:09:11;;;;;;;21.10;12.73;;;;;;;;;;5076315;28;20034;-61
2021/07/21 02:11:41;;;;;;;24.15;12.38;;;;;;;;;;5094486;28;20085;-62
2021/07/21 02:14:08;;;;;;;22.35;12.10;;;;;;;;;;5093804;28;20055;-62
2021/07/21 02:16:36;;;;;;;23.33;12.10;;;;;;;;;;5094595;28;20024;-62
2021/07/21 02:19:03;;;;;;;22.60;11.82;;;;;;;;;;5094232;28;20024;-62
2021/07/21 02:21:31;;;;;;;22.55;11.55;;;;;;;;;;5093839;28;20085;-62
2021/07/21 02:23:57;;;;;;;19.48;10.93;;;;;;;;;;5088898;22;20091;-64
2021/07/21 02:26:23;;;;;;;22.17;12.88;;;;;;;;;;5075236;28;20451;-66
2021/07/21 02:28:50;;;;;;;23.08;12.68;;;;;;;;;;5075861;28;20020;-66
2021/07/21 02:31:27;;;;;;;21.45;11.35;;;;;;;;;;5094355;28;20024;-64
2021/07/21 02:33:57;;;;;;;27.75;14.75;;;;;;;;;;5075777;28;20061;-65
2021/07/21 02:36:24;;;;;;;26.23;12.25;;;;;;;;;;5075593;28;20032;-66
2021/07/21 02:38:51;;;;;;;21.00;11.88;;;;;;;;;;5093849;28;20047;-66
2021/07/21 02:41:17;;;;;;;23.45;13.85;;;;;;;;;;5093564;28;20514;-64
2021/07/21 02:43:43;;;;;;;23.67;13.20;;;;;;;;;;5093088;28;20020;-66
2021/07/21 02:46:09;;;;;;;25.05;14.35;;;;;;;;;;5075302;28;20016;-64
2021/07/21 02:48:35;;;;;;;25.65;14.73;;;;;;;;;;5075945;28;20051;-64
2021/07/21 02:51:10;;;;;;;23.30;13.23;;;;;;;;;;5075603;28;20024;-64
2021/07/21 02:53:38;;;;;;;24.58;11.98;;;;;;;;;;5075550;28;20031;-64
2021/07/21 02:56:08;;;;;;;24.77;12.43;;;;;;;;;;5075153;28;20028;-64
2021/07/21 02:58:39;;;;;;;26.25;12.18;;;;;;;;;;5093637;28;20103;-64
2021/07/21 03:01:06;;;;;;;24.15;12.40;;;;;;;;;;5058886;28;20067;-64
2021/07/21 03:03:33;;;;;;;27.63;14.55;;;;;;;;;;5093314;28;20020;-64
2021/07/21 03:06:03;;;;;;;25.42;15.25;;;;;;;;;;5075090;28;20044;-64
2021/07/21 03:08:29;;;;;;;24.15;12.55;;;;;;;;;;5093105;28;20073;-63
2021/07/21 03:10:57;;;;;;;24.33;13.23;;;;;;;;;;5093101;28;20504;-66
2021/07/21 03:13:25;;;;;;;24.20;13.82;;;;;;;;;;5075575;28;20081;-64
2021/07/21 03:15:51;;;;;;;24.15;13.60;;;;;;;;;;5074983;28;20062;-63
2021/07/21 03:18:19;;;;;;;23.73;13.07;;;;;;;;;;5075261;28;20032;-64
2021/07/21 03:20:47;;;;;;;23.90;13.70;;;;;;;;;;5092986;28;20024;-64
2021/07/21 03:23:14;;;;;;;22.80;13.00;;;;;;;;;;5074835;28;20024;-64
2021/07/21 03:25:40;;;;;;;23.33;12.55;;;;;;;;;;5091553;28;20055;-64
2021/07/21 03:28:07;;;;;;;29.00;19.27;;;;;;;;;;5075067;28;20039;-64
2021/07/21 03:30:33;;;;;;;55.25;49.25;;;;;;;;;;5092874;28;20492;-63
2021/07/21 03:33:00;;;;;;;28.88;19.80;;;;;;;;;;5092527;28;20035;-64
2021/07/21 03:35:27;;;;;;;39.63;29.33;;;;;;;;;;5074373;28;20552;-64
2021/07/21 03:37:53;;;;;;;33.63;24.58;;;;;;;;;;5074714;28;20038;-64
2021/07/21 03:40:20;;;;;;;32.75;20.80;;;;;;;;;;5092235;28;20085;-63
2021/07/21 03:42:47;;;;;;;20.73;12.32;;;;;;;;;;5092704;28;20055;-64
2021/07/21 03:45:14;;;;;;;24.10;12.23;;;;;;;;;;5092274;28;20032;-64
2021/07/21 03:47:43;;;;;;;22.30;13.07;;;;;;;;;;5074517;28;20024;-64
2021/07/21 03:50:10;;;;;;;23.23;12.50;;;;;;;;;;5092403;28;20031;-64
2021/07/21 03:52:37;;;;;;;22.70;12.50;;;;;;;;;;5074092;28;20046;-64
2021/07/21 03:55:06;;;;;;;22.92;12.45;;;;;;;;;;5092020;28;20542;-64
2021/07/21 03:57:33;;;;;;;24.27;12.90;;;;;;;;;;5074032;28;20119;-65
2021/07/21 03:59:59;;;;;;;21.42;12.68;;;;;;;;;;5074262;28;20035;-65
2021/07/21 04:02:25;;;;;;;22.20;12.63;;;;;;;;;;5092230;28;20063;-65
2021/07/21 04:04:52;;;;;;;23.20;12.98;;;;;;;;;;5091910;28;20034;-68
2021/07/21 04:07:19;;;;;;;22.50;13.32;;;;;;;;;;5091890;28;20034;-65
2021/07/21 04:09:46;;;;;;;22.23;12.27;;;;;;;;;;5073986;28;20419;-65
2021/07/21 04:12:14;;;;;;;23.88;13.05;;;;;;;;;;5074157;28;20031;-65
2021/07/21 04:14:42;;;;;;;23.08;13.63;;;;;;;;;;5074062;28;20035;-64
2021/07/21 04:17:08;;;;;;;25.33;13.43;;;;;;;;;;5072917;28;20094;-65
2021/07/21 04:19:35;;;;;;;23.30;12.90;;;;;;;;;;5073819;28;20027;-66
2021/07/21 04:22:02;;;;;;;24.23;13.45;;;;;;;;;;5092034;28;20028;-65
2021/07/21 04:24:28;;;;;;;24.02;13.43;;;;;;;;;;5091802;28;20063;-65
2021/07/21 04:26:55;;;;;;;22.15;11.88;;;;;;;;;;5074043;28;20021;-65
2021/07/21 04:29:23;;;;;;;23.52;13.02;;;;;;;;;;5091892;28;20025;-65
2021/07/21 04:31:49;;;;;;;24.17;13.60;;;;;;;;;;5074018;28;20028;-65
2021/07/21 04:34:17;;;;;;;24.13;13.23;;;;;;;;;;5091881;28;20400;-65
2021/07/21 04:36:43;;;;;;;26.02;14.45;;;;;;;;;;5075292;28;20077;-65
2021/07/21 04:39:29;;;;;;;24.85;13.80;;;;;;;;;;5095416;28;20495;-65
2021/07/21 04:41:57;;;;;;;24.75;14.55;;;;;;;;;;5094213;28;20035;-65
2021/07/21 04:44:23;;;;;;;24.80;13.52;;;;;;;;;;5075786;28;20034;-64
2021/07/21 04:46:49;;;;;;;22.90;13.25;;;;;;;;;;5075737;28;20065;-65
2021/07/21 04:49:16;;;;;;;23.42;12.38;;;;;;;;;;5094827;28;20455;-65
2021/07/21 04:51:43;;;;;;;25.20;13.57;;;;;;;;;;5077512;28;20142;-65
2021/07/21 04:54:09;;;;;;;20.95;12.98;;;;;;;;;;5076367;28;20092;-64
2021/07/21 04:56:35;;;;;;;21.60;12.30;;;;;;;;;;5094637;28;20081;-65
2021/07/21 04:59:02;;;;;;;26.02;13.75;;;;;;;;;;5095358;28;20040;-65
2021/07/21 05:01:28;;;;;;;23.85;12.98;;;;;;;;;;5095236;28;20508;-66
2021/07/21 05:03:54;;;;;;;24.45;14.45;;;;;;;;;;5095061;28;20063;-66
2021/07/21 05:06:24;;;;;;;23.55;14.60;;;;;;;;;;5076410;28;20066;-65
2021/07/21 05:08:50;;;;;;;26.83;13.88;;;;;;;;;;5094831;28;20028;-66
2021/07/21 05:11:17;;;;;;;26.10;13.23;;;;;;;;;;5095267;28;20097;-65
2021/07/21 05:13:42;;;;;;;25.83;14.73;;;;;;;;;;5095381;28;20036;-63
2021/07/21 05:16:09;;;;;;;28.98;18.40;;;;;;;;;;5076760;28;20069;-63
2021/07/21 05:18:36;;;;;;;24.92;13.50;;;;;;;;;;5073888;28;20403;-63
2021/07/21 05:21:02;;;;;;;23.98;13.93;;;;;;;;;;5059289;28;20238;-63
2021/07/21 05:23:28;;;;;;;26.08;15.00;;;;;;;;;;5076705;28;20070;-64
2021/07/21 05:25:54;;;;;;;23.90;14.15;;;;;;;;;;5076217;28;20024;-63
2021/07/21 05:28:20;;;;;;;23.35;13.18;;;;;;;;;;5076754;28;20031;-63
2021/07/21 05:30:46;;;;;;;24.92;14.55;;;;;;;;;;5094675;28;20055;-63
2021/07/21 05:33:12;;;;;;;23.23;12.98;;;;;;;;;;5076064;28;20024;-63
2021/07/21 05:35:40;;;;;;;26.98;13.50;;;;;;;;;;5076456;28;20131;-63
2021/07/21 05:38:06;;;;;;;27.25;15.48;;;;;;;;;;5074328;28;20426;-63
2021/07/21 05:40:32;;;;;;;30.25;15.20;;;;;;;;;;5073997;28;20028;-64
2021/07/21 05:42:58;;;;;;;27.63;13.77;;;;;;;;;;5073933;28;20032;-63
2021/07/21 05:45:24;;;;;;;33.00;13.43;;;;;;;;;;5055829;28;20052;-63
2021/07/21 05:47:50;;;;;;;23.08;13.70;;;;;;;;;;5054361;28;20020;-63
2021/07/21 05:50:16;;;;;;;26.58;13.65;;;;;;;;;;5055832;28;20074;-63
2021/07/21 05:52:42;;;;;;;26.25;15.45;;;;;;;;;;5091287;28;20082;-63
2021/07/21 05:55:08;;;;;;;27.42;16.10;;;;;;;;;;5093963;28;20487;-63
2021/07/21 05:57:34;;;;;;;27.83;13.95;;;;;;;;;;5075835;28;20046;-63
2021/07/21 06:00:00;;;;;;;21.98;13.50;;;;;;;;;;5093933;28;20103;-63
2021/07/21 06:02:26;;;;;;;23.50;14.48;;;;;;;;;;5076013;28;20031;-63
2021/07/21 06:04:52;;;;;;;22.50;14.45;;;;;;;;;;5093731;28;20028;-63
2021/07/21 06:07:18;;;;;;;24.65;14.57;;;;;;;;;;5094062;28;20030;-63
2021/07/21 06:09:44;;;;;;;23.95;14.13;;;;;;;;;;5093996;28;20020;-63
2021/07/21 06:12:10;;;;;;;23.08;14.25;;;;;;;;;;5093715;28;20494;-63
2021/07/21 06:14:36;;;;;;;23.55;14.00;;;;;;;;;;5093551;28;20024;-63
2021/07/21 06:17:02;;;;;;;25.67;14.48;;;;;;;;;;5093489;28;20031;-63
2021/07/21 06:19:29;;;;;;;22.50;13.80;;;;;;;;;;5089376;28;20080;-64
2021/07/21 06:21:58;;;;;;;24.83;14.63;;;;;;;;;;5095484;28;20450;-63
2021/07/21 06:24:24;;;;;;;25.38;14.85;;;;;;;;;;5113657;28;20032;-63
2021/07/21 06:26:49;;;;;;;21.33;12.88;;;;;;;;;;5113922;28;20473;-63
2021/07/21 06:29:15;;;;;;;21.83;13.32;;;;;;;;;;5095737;28;20032;-63
2021/07/21 06:31:41;;;;;;;27.45;15.18;;;;;;;;;;5113531;28;20023;-63
2021/07/21 06:34:07;;;;;;;23.50;15.13;;;;;;;;;;5113354;28;20471;-63
2021/07/21 06:36:33;;;;;;;23.08;12.60;;;;;;;;;;5095314;28;20364;-63
2021/07/21 06:38:59;;;;;;;22.75;12.95;;;;;;;;;;5113611;28;20031;-63
2021/07/21 06:41:25;;;;;;;22.52;13.73;;;;;;;;;;5113171;28;20034;-63
2021/07/21 06:43:53;;;;;;;21.58;13.20;;;;;;;;;;5094836;28;20531;-63
2021/07/21 06:46:19;;;;;;;21.55;12.68;;;;;;;;;;5113138;28;20395;-64
2021/07/21 06:48:45;;;;;;;23.30;13.48;;;;;;;;;;5094767;28;20045;-63
2021/07/21 06:51:11;;;;;;;23.65;14.15;;;;;;;;;;5113393;28;20024;-63
2021/07/21 06:53:37;;;;;;;23.70;12.95;;;;;;;;;;5098838;28;20024;-63
2021/07/21 06:56:03;;;;;;;24.83;13.77;;;;;;;;;;5092327;28;20024;-63
2021/07/21 06:58:29;;;;;;;21.40;13.35;;;;;;;;;;5092863;28;20028;-63
2021/07/21 07:00:55;;;;;;;23.17;13.65;;;;;;;;;;5074269;28;20372;-63
2021/07/21 07:03:24;;;;;;;27.23;15.57;;;;;;;;;;5093040;28;20032;-71
2021/07/21 07:05:50;;;;;;;24.08;12.88;;;;;;;;;;5092449;28;20024;-64
2021/07/21 07:08:17;;;;;;;24.92;13.48;;;;;;;;;;5072999;28;20106;-62
2021/07/21 07:10:42;;;;;;;21.65;12.48;;;;;;;;;;5073705;28;20039;-62
2021/07/21 07:13:08;;;;;;;22.83;12.75;;;;;;;;;;5074976;28;20021;-63
2021/07/21 07:15:34;;;;;;;20.70;12.60;;;;;;;;;;5074524;28;20340;-63
2021/07/21 07:18:00;;;;;;;21.38;12.23;;;;;;;;;;5092453;28;20031;-63
2021/07/21 07:20:26;;;;;;;21.27;13.50;;;;;;;;;;5092224;28;20020;-63
2021/07/21 07:22:52;;;;;;;20.63;12.60;;;;;;;;;;5073886;28;20036;-63
2021/07/21 07:25:18;;;;;;;21.67;13.70;;;;;;;;;;5091959;28;20032;-64
2021/07/21 07:27:44;;;;;;;24.00;13.20;;;;;;;;;;5092371;28;20023;-62
2021/07/21 07:30:12;;;;;;;24.42;13.57;;;;;;;;;;5074122;28;20028;-68
2021/07/21 07:32:38;;;;;;;23.43;13.37;;;;;;;;;;5092609;28;20103;-68
2021/07/21 07:35:05;;;;;;;21.13;13.13;;;;;;;;;;5091780;28;20027;-68
2021/07/21 07:37:31;;;;;;;21.88;13.32;;;;;;;;;;5091725;28;20028;-68
2021/07/21 07:39:57;;;;;;;22.27;13.75;;;;;;;;;;5092040;28;20020;-68
2021/07/21 07:42:23;;;;;;;21.30;12.98;;;;;;;;;;5091819;28;20289;-67
2021/07/21 07:44:49;;;;;;;20.77;12.85;;;;;;;;;;5091823;28;20030;-68
2021/07/21 07:47:15;;;;;;;21.85;13.32;;;;;;;;;;5073446;28;20291;-68
2021/07/21 07:49:41;;;;;;;22.40;13.43;;;;;;;;;;5091610;28;20032;-68
2021/07/21 07:52:08;;;;;;;22.33;13.43;;;;;;;;;;5091689;28;20020;-67
2021/07/21 07:54:34;;;;;;;20.00;12.70;;;;;;;;;;5091885;28;20020;-68
2021/07/21 07:57:00;;;;;;;21.05;13.55;;;;;;;;;;5091789;28;20370;-68
2021/07/21 07:59:26;;;;;;;19.25;12.93;;;;;;;;;;5073686;28;20499;-68
2021/07/21 08:01:52;;;;;;;19.67;12.52;;;;;;;;;;5092320;28;20024;-68
2021/07/21 08:04:18;;;;;;;22.13;12.82;;;;;;;;;;5091791;28;20024;-68
2021/07/21 08:06:44;;;;;;;19.23;13.23;;;;;;;;;;5073383;28;20031;-68
2021/07/21 08:09:12;;;;;;;20.60;13.18;;;;;;;;;;5073137;28;20027;-68
2021/07/21 08:11:45;;;;;;;20.83;13.02;;;;;;;;;;5093132;28;20028;-67
2021/07/21 08:14:11;;;;;;;20.23;13.32;;;;;;;;;;5095817;28;20399;-68
2021/07/21 08:16:36;;;;;;;20.35;13.32;;;;;;;;;;5077635;28;20031;-68
2021/07/21 08:19:03;;;;;;;24.88;13.30;;;;;;;;;;5076968;28;20036;-69
2021/07/21 08:21:29;;;;;;;21.17;13.75;;;;;;;;;;5095552;28;20032;-68
2021/07/21 08:23:55;;;;;;;19.35;12.98;;;;;;;;;;5095074;28;20483;-68
2021/07/21 08:26:21;;;;;;;19.15;12.55;;;;;;;;;;5060352;22;20139;-67
2021/07/21 08:28:47;;;;;;;20.95;13.32;;;;;;;;;;5037125;28;20082;-67
2021/07/21 08:31:13;;;;;;;19.85;13.25;;;;;;;;;;5037487;28;20040;-67
2021/07/21 08:33:41;;;;;;;21.75;13.82;;;;;;;;;;5055518;28;20516;-67
2021/07/21 08:36:07;;;;;;;20.65;13.85;;;;;;;;;;5070551;28;20186;-69
2021/07/21 08:38:33;;;;;;;19.52;13.05;;;;;;;;;;5057201;28;20483;-67
2021/07/21 08:40:59;;;;;;;20.63;13.82;;;;;;;;;;5074820;28;20037;-67
2021/07/21 08:43:26;;;;;;;22.05;13.85;;;;;;;;;;5057117;28;20012;-67
2021/07/21 08:45:52;;;;;;;20.25;13.32;;;;;;;;;;5075018;28;20127;-67
2021/07/21 08:48:18;;;;;;;22.70;13.82;;;;;;;;;;5075109;28;20020;-67
2021/07/21 08:50:45;;;;;;;22.20;13.32;;;;;;;;;;5075032;28;20025;-67
2021/07/21 08:53:11;;;;;;;19.48;12.65;;;;;;;;;;5057113;28;20074;-58
2021/07/21 08:55:37;;;;;;;20.10;12.93;;;;;;;;;;5056752;28;20031;-59
2021/07/21 08:58:04;;;;;;;20.50;13.63;;;;;;;;;;5074920;28;20020;-57
2021/07/21 09:00:30;;;;;;;20.65;12.80;;;;;;;;;;5074973;28;20429;-57
2021/07/21 09:02:56;;;;;;;22.02;13.40;;;;;;;;;;5057091;28;20109;-54
2021/07/21 09:05:22;;;;;;;19.38;12.93;;;;;;;;;;5074339;28;20027;-57
2021/07/21 09:07:48;;;;;;;21.02;12.82;;;;;;;;;;5056770;28;20115;-59
2021/07/21 09:10:18;;;;;;;21.75;14.10;;;;;;;;;;5057076;28;20020;-59
2021/07/21 09:12:45;;;;;;;20.73;13.38;;;;;;;;;;5056987;28;20392;-58
2021/07/21 09:15:18;;;;;;;19.52;13.05;;;;;;;;;;5056762;28;20040;-58
2021/07/21 09:18:05;;;;;;;20.08;13.10;;;;;;;;;;5057134;28;20029;-60
2021/07/21 09:20:34;;;;;;;19.67;12.85;;;;;;;;;;5054941;28;20106;-59
2021/07/21 09:23:00;;;;;;;20.23;14.25;;;;;;;;;;5035228;28;20032;-62
2021/07/21 09:25:27;;;;;;;22.15;14.73;;;;;;;;;;5054514;28;20032;-58
2021/07/21 09:27:56;;;;;;;20.15;13.90;;;;;;;;;;5054967;28;20047;-62
2021/07/21 09:30:24;;;;;;;20.58;12.38;;;;;;;;;;5054816;28;20032;-61
2021/07/21 09:33:07;;;;;;;21.38;13.35;;;;;;;;;;5036864;28;20492;-60
2021/07/21 09:35:38;;;;;;;20.00;13.77;;;;;;;;;;5035418;28;20114;-61
2021/07/21 09:38:17;;;;;;;22.13;13.88;;;;;;;;;;5054985;28;20036;-60
2021/07/21 09:40:44;;;;;;;23.95;15.23;;;;;;;;;;5036641;28;20105;-60
2021/07/21 09:43:21;;;;;;;20.00;14.45;;;;;;;;;;5054667;28;20021;-60
2021/07/21 09:45:47;;;;;;;20.58;13.95;;;;;;;;;;5054827;28;20044;-60
2021/07/21 09:48:14;;;;;;;24.75;15.38;;;;;;;;;;5054490;28;20025;-59
2021/07/21 09:50:41;;;;;;;21.88;14.30;;;;;;;;;;5036806;28;20021;-57
2021/07/21 09:53:10;;;;;;;20.02;13.40;;;;;;;;;;5054314;28;20028;-60
2021/07/21 09:55:36;;;;;;;;;;;;;;;;;;5054420;28;20021;-59
2021/07/21 09:58:06;;;;;;;21.80;13.25;;;;;;;;;;5036315;28;20315;-61
2021/07/21 10:00:42;;;;;;;22.27;14.48;;;;;;;;;;5053613;28;20366;-62
2021/07/21 10:03:25;;;;;;;21.08;14.02;;;;;;;;;;5035812;28;20035;-61
2021/07/21 10:05:58;;;;;;;22.70;15.18;;;;;;;;;;5053577;28;20017;-60
2021/07/21 10:08:32;;;;;;;22.10;14.85;;;;;;;;;;5035867;28;20023;-61
2021/07/21 10:10:58;;;;;;;21.63;15.00;;;;;;;;;;5053327;28;20025;-61
2021/07/21 10:13:24;;;;;;;22.17;15.43;;;;;;;;;;5035674;28;20057;-61
2021/07/21 10:15:54;;;;;;;22.27;14.82;;;;;;;;;;5053305;28;20064;-59
2021/07/21 10:18:22;;;;;;;20.98;15.57;;;;;;;;;;5054009;28;20021;-58
2021/07/21 10:20:48;;;;;;;22.23;15.80;;;;;;;;;;5035667;28;20074;-61
2021/07/21 10:23:15;;;;;;;21.92;15.75;;;;;;;;;;5035488;28;20024;-59
2021/07/21 10:25:41;;;;;;;22.85;16.00;;;;;;;;;;5053451;28;20033;-60
2021/07/21 10:28:08;;;;;;;21.58;15.82;;;;;;;;;;5054109;28;20028;-60
2021/07/21 10:30:35;;;;;;;22.38;16.50;;;;;;;;;;5053400;28;20048;-61
2021/07/21 10:33:01;;;;;;;20.98;16.42;;;;;;;;;;5035768;28;20020;-58
2021/07/21 10:35:28;;;;;;;20.63;16.25;;;;;;;;;;5052516;28;20040;-60
2021/07/21 10:37:55;;;;;;;22.20;16.35;;;;;;;;;;5035581;28;20503;-58
2021/07/21 10:40:21;;;;;;;21.10;16.92;;;;;;;;;;5053242;28;20044;-58
2021/07/21 10:42:50;;;;;;;21.45;16.25;;;;;;;;;;5035315;28;20029;-59
2021/07/21 10:45:17;;;;;;;24.70;16.25;;;;;;;;;;5052965;28;20032;-57
2021/07/21 10:47:44;;;;;;;22.20;16.67;;;;;;;;;;5034767;28;20023;-59
2021/07/21 10:50:26;;;;;;;22.40;17.17;;;;;;;;;;5036097;28;20029;-61
2021/07/21 10:53:13;;;;;;;22.67;17.02;;;;;;;;;;5053771;28;20747;-59
2021/07/21 10:55:45;;;;;;;22.10;17.27;;;;;;;;;;5034102;28;20552;-60
2021/07/21 11:00:56;;;;;;;21.60;16.65;;;;;;;;;;5053675;28;20555;-61
2021/07/21 11:03:23;;;;;;;22.63;16.70;;;;;;;;;;5054074;28;20374;-60
2021/07/21 11:06:01;;;;;;;21.35;16.70;;;;;;;;;;5036234;28;20017;-59
2021/07/21 11:08:27;;;;;;;;;;;;;;;;;;5054467;28;20075;-61
2021/07/21 11:10:55;;;;;;;22.85;16.45;;;;;;;;;;5054112;28;20392;-59
2021/07/21 11:13:30;;;;;;;20.65;16.15;;;;;;;;;;5036311;28;20024;-60
2021/07/21 11:16:01;;;;;;;21.55;16.00;;;;;;;;;;5053742;28;20448;-62
2021/07/21 11:18:27;;;;;;;22.40;17.48;;;;;;;;;;5053770;28;20103;-62
2021/07/21 11:20:56;;;;;;;22.17;16.58;;;;;;;;;;5053518;28;20063;-62
2021/07/21 11:23:41;;;;;;;21.67;16.52;;;;;;;;;;5035202;28;20043;-62
2021/07/21 11:26:26;;;;;;;20.80;16.63;;;;;;;;;;5052821;28;20071;-62
2021/07/21 11:28:52;;;;;;;21.63;17.33;;;;;;;;;;5052665;28;20021;-62
2021/07/21 11:31:18;;;;;;;22.90;17.52;;;;;;;;;;5035141;28;20021;-55
2021/07/21 11:33:50;;;;;;;21.92;17.23;;;;;;;;;;5035245;28;20063;-60
2021/07/21 11:36:35;;;;;;;21.77;16.90;;;;;;;;;;5052820;28;20168;-60
2021/07/21 11:39:01;;;;;;;20.65;16.10;;;;;;;;;;5035354;28;20114;-60
2021/07/21 11:41:49;;;;;;;23.35;17.02;;;;;;;;;;5052371;28;20057;-62
2021/07/21 11:44:21;;;;;;;23.67;18.50;;;;;;;;;;5052810;28;20017;-62
2021/07/21 11:46:48;;;;;;;23.10;17.88;;;;;;;;;;5051709;28;20025;-63
2021/07/21 11:49:18;;;;;;;22.20;18.23;;;;;;;;;;5034562;28;20029;-60
2021/07/21 11:51:48;;;;;;;22.35;17.63;;;;;;;;;;5034559;28;20500;-61
2021/07/21 11:54:19;;;;;;;22.52;18.73;;;;;;;;;;5034330;28;20021;-60
2021/07/21 11:56:46;;;;;;;22.90;18.15;;;;;;;;;;5052572;28;20033;-62
2021/07/21 11:59:12;;;;;;;22.95;17.63;;;;;;;;;;5052683;28;20056;-61
2021/07/21 12:01:38;;;;;;;22.17;17.02;;;;;;;;;;5034230;28;20060;-62
2021/07/21 12:04:04;;;;;;;23.35;17.52;;;;;;;;;;5052328;28;20023;-61
2021/07/21 12:06:31;;;;;;;20.52;16.83;;;;;;;;;;5052869;28;20413;-59
2021/07/21 12:08:57;;;;;;;21.48;16.98;;;;;;;;;;5054099;28;20380;-59
2021/07/21 12:11:24;;;;;;;23.08;17.20;;;;;;;;;;5053688;28;20029;-58
2021/07/21 12:14:00;;;;;;;22.83;17.25;;;;;;;;;;5053725;28;20029;-56
2021/07/21 12:16:27;;;;;;;21.17;16.75;;;;;;;;;;5035431;28;20054;-59
2021/07/21 12:19:13;;;;;;;23.83;17.38;;;;;;;;;;5035809;28;20056;-57
2021/07/21 12:21:39;;;;;;;23.05;17.83;;;;;;;;;;5035478;28;20385;-58
2021/07/21 12:24:06;;;;;;;21.83;17.70;;;;;;;;;;5052910;28;20036;-56
2021/07/21 12:26:43;;;;;;;20.13;16.17;;;;;;;;;;5052972;28;20667;-57
2021/07/21 12:29:09;;;;;;;21.27;16.75;;;;;;;;;;5052516;28;20040;-56
2021/07/21 12:31:35;;;;;;;21.38;16.13;;;;;;;;;;5034906;28;20338;-54
2021/07/21 12:34:11;;;;;;;22.90;16.77;;;;;;;;;;5053142;28;20028;-57
2021/07/21 12:36:41;;;;;;;22.10;17.52;;;;;;;;;;5034805;28;20693;-58
2021/07/21 12:39:07;;;;;;;22.65;16.58;;;;;;;;;;5052713;28;20029;-61
2021/07/21 12:41:33;;;;;;;22.95;15.90;;;;;;;;;;5052862;28;20033;-60
2021/07/21 12:43:59;;;;;;;22.88;17.02;;;;;;;;;;5052590;28;20105;-59
2021/07/21 12:46:25;;;;;;;20.23;16.45;;;;;;;;;;5051896;28;20025;-59
2021/07/21 12:48:55;;;;;;;23.45;17.70;;;;;;;;;;5060072;28;20567;-58
2021/07/21 12:51:21;;;;;;;20.80;16.92;;;;;;;;;;5073454;28;20046;-58
2021/07/21 12:53:47;;;;;;;22.08;16.40;;;;;;;;;;5073162;28;20146;-58
2021/07/21 12:56:14;;;;;;;21.00;16.63;;;;;;;;;;5073104;28;20032;-57
2021/07/21 12:58:40;;;;;;;19.83;16.05;;;;;;;;;;5058632;28;20488;-59
2021/07/21 13:01:06;;;;;;;21.42;16.63;;;;;;;;;;5075980;28;20045;-58
2021/07/21 13:03:32;;;;;;;21.15;16.95;;;;;;;;;;5076535;28;20473;-58
2021/07/21 13:06:00;;;;;;;22.88;16.13;;;;;;;;;;5076249;28;20082;-59
2021/07/21 13:08:33;;;;;;;20.45;16.40;;;;;;;;;;5076434;28;20056;-56
2021/07/21 13:11:02;;;;;;;21.58;16.42;;;;;;;;;;5058001;28;20120;-58
2021/07/21 13:13:32;;;;;;;21.08;16.88;;;;;;;;;;5076043;28;20104;-60
2021/07/21 13:16:00;;;;;;;21.65;16.20;;;;;;;;;;5074978;28;20067;-58
2021/07/21 13:18:30;;;;;;;20.85;16.63;;;;;;;;;;5075653;28;20397;-57
2021/07/21 13:20:56;;;;;;;20.27;16.23;;;;;;;;;;5076049;28;20120;-59
2021/07/21 13:23:24;;;;;;;21.00;16.85;;;;;;;;;;5076122;28;20055;-59
2021/07/21 13:26:08;;;;;;;21.98;17.48;;;;;;;;;;5075040;28;20460;-59
2021/07/21 13:28:35;;;;;;;22.88;17.02;;;;;;;;;;5075246;28;20027;-58
2021/07/21 13:31:16;;;;;;;22.02;16.38;;;;;;;;;;5075776;28;20035;-56
2021/07/21 13:33:42;;;;;;;21.10;17.45;;;;;;;;;;5057307;28;20078;-60
2021/07/21 13:36:12;;;;;;;23.10;18.08;;;;;;;;;;5074671;28;20077;-58
2021/07/21 13:38:38;;;;;;;23.27;17.13;;;;;;;;;;5055645;28;20031;-58
2021/07/21 13:41:09;;;;;;;22.50;17.90;;;30.50;71.40;;;;;;5067665;28;20108;-53
2021/07/21 13:43:35;;;;;;;21.33;18.15;;;33.60;96.40;;;;;;5064459;28;20545;-54
2021/07/21 13:46:28;;;;;;;23.00;19.30;;;32.10;95.60;;;;;;5046402;28;20396;-58
2021/07/21 13:49:07;;;;;;;20.70;17.75;;;31.20;95.40;;;;;;5060006;28;20465;-60
2021/07/21 13:51:40;;;;;;;21.65;17.88;;;32.20;95.80;;;;;;5036307;28;20400;-55
2021/07/21 13:54:21;;;;;;;22.92;18.63;;;31.30;94.70;;;;;;5053896;28;20098;-55
2021/07/21 13:57:16;;;;;;;21.17;18.38;;;30.70;94.70;;;;;;5035786;28;20523;-54
2021/07/21 13:59:43;;;;;;;20.95;18.05;;;31.80;94.40;;;;;;5054278;28;20108;-53
2021/07/21 14:02:11;;;;;;;20.50;17.98;;;32.80;94.70;;;;;;5035638;28;20523;-53
2021/07/21 14:04:37;;;;;;;;;;;31.80;93.60;;;;;;5054689;28;20044;-55
2021/07/21 14:07:04;;;;;;;21.65;17.65;;;31.50;93.60;;;;;;5035470;28;19905;-55
2021/07/21 14:09:30;;;;;;;20.55;17.65;;;32.80;92.70;;;;;;5035381;28;20558;-56
2021/07/21 14:11:57;;;;;;;23.42;17.85;;;32.80;92.40;;;;;;5035961;28;20060;-57
2021/07/21 14:14:24;;;;;;;20.95;17.95;;;33.10;92.00;;;;;;5053512;28;20112;-57
2021/07/21 14:16:50;;;;;;;21.08;18.77;;;33.40;91.20;;;;;;5035263;28;20149;-59
2021/07/21 14:19:16;;;;;;;21.70;17.98;;;34.60;91.20;;;;;;5052921;28;20036;-58
2021/07/21 14:21:44;;;;;;;21.65;19.13;;;32.70;91.10;;;;;;5053372;28;20135;-54